createdAt,value
2018-09-05T00:01:44.030Z,3.33
2018-09-05T00:04:12.106Z,3.20
2018-09-05T00:06:40.179Z,3.30
2018-09-05T00:09:08.939Z,3.07
2018-09-05T00:11:37.620Z,3.03
2018-09-05T00:14:05.722Z,3.03
2018-09-05T00:16:33.846Z,3.00
2018-09-05T00:19:01.912Z,3.03
2018-09-05T00:21:29.974Z,3.10
2018-09-05T00:23:58.066Z,2.47
2018-09-05T00:26:26.142Z,2.87
2018-09-05T00:28:54.202Z,2.77
2018-09-05T00:31:22.267Z,3.00
2018-09-05T00:33:50.358Z,3.13
2018-09-05T00:36:18.435Z,2.83
2018-09-05T00:38:46.498Z,2.80
2018-09-05T00:41:14.571Z,2.97
2018-09-05T00:43:42.632Z,2.97
2018-09-05T00:46:10.715Z,3.17
2018-09-05T00:48:38.770Z,2.73
2018-09-05T00:51:06.834Z,2.67
2018-09-05T00:53:34.909Z,2.83
2018-09-05T00:56:02.975Z,3.00
2018-09-05T00:58:31.115Z,2.93
2018-09-05T01:00:59.183Z,3.00
2018-09-05T01:03:27.251Z,2.93
2018-09-05T01:05:55.324Z,3.10
2018-09-05T01:08:23.391Z,3.53
2018-09-05T01:10:51.452Z,3.03
2018-09-05T01:13:19.515Z,2.73
2018-09-05T01:15:47.579Z,3.40
2018-09-05T01:18:15.638Z,3.47
2018-09-05T01:20:43.698Z,3.10
2018-09-05T01:23:11.764Z,3.83
2018-09-05T01:25:39.835Z,3.40
2018-09-05T01:28:07.907Z,3.40
2018-09-05T01:30:35.967Z,3.23
2018-09-05T01:33:04.039Z,3.70
2018-09-05T01:35:32.105Z,3.47
2018-09-05T01:38:00.163Z,3.60
2018-09-05T01:40:28.222Z,3.60
2018-09-05T01:42:56.291Z,3.47
2018-09-05T01:45:24.347Z,3.63
2018-09-05T01:47:52.420Z,3.60
2018-09-05T01:50:24.730Z,3.60
2018-09-05T01:52:52.803Z,3.73
2018-09-05T01:55:20.867Z,3.67
2018-09-05T01:57:48.938Z,3.77
2018-09-05T02:00:22.438Z,3.27
2018-09-05T02:02:50.507Z,3.47
2018-09-05T02:05:18.579Z,3.60
2018-09-05T02:07:46.655Z,3.23
2018-09-05T02:10:14.730Z,3.60
2018-09-05T02:12:42.803Z,3.17
2018-09-05T02:15:10.875Z,3.47
2018-09-05T02:17:38.959Z,3.37
2018-09-05T02:20:07.178Z,3.47
2018-09-05T02:22:35.268Z,3.07
2018-09-05T02:25:03.375Z,3.57
2018-09-05T02:27:31.618Z,3.67
2018-09-05T02:29:59.684Z,3.50
2018-09-05T02:32:27.763Z,3.60
2018-09-05T02:34:55.834Z,3.43
2018-09-05T02:37:23.918Z,3.73
2018-09-05T02:39:51.991Z,3.87
2018-09-05T02:42:20.232Z,3.43
2018-09-05T02:44:48.307Z,3.30
2018-09-05T02:47:16.382Z,3.17
2018-09-05T02:49:44.446Z,3.70
2018-09-05T02:52:12.535Z,3.50
2018-09-05T02:54:40.622Z,2.97
2018-09-05T02:57:08.710Z,3.23
2018-09-05T02:59:36.779Z,3.27
2018-09-05T03:02:04.850Z,3.60
2018-09-05T03:04:32.932Z,3.37
2018-09-05T03:07:01.003Z,3.50
2018-09-05T03:09:29.220Z,3.37
2018-09-05T03:11:57.175Z,3.43
2018-09-05T03:14:25.252Z,3.50
2018-09-05T03:16:53.326Z,3.53
2018-09-05T03:19:21.954Z,3.43
2018-09-05T03:21:50.059Z,3.77
2018-09-05T03:24:18.247Z,3.53
2018-09-05T03:26:46.329Z,3.37
2018-09-05T03:29:14.398Z,3.77
2018-09-05T03:31:42.800Z,3.40
2018-09-05T03:34:10.867Z,4.17
2018-09-05T03:36:38.942Z,4.20
2018-09-05T03:39:08.316Z,3.93
2018-09-05T03:41:36.386Z,4.10
2018-09-05T03:44:04.475Z,3.50
2018-09-05T03:46:32.552Z,3.20
2018-09-05T03:49:00.628Z,3.37
2018-09-05T03:51:28.711Z,3.63
2018-09-05T03:53:56.787Z,3.87
2018-09-05T03:56:24.852Z,3.60
2018-09-05T03:58:52.930Z,4.00
2018-09-05T04:01:21.035Z,3.50
2018-09-05T04:03:49.139Z,3.67
2018-09-05T04:06:20.126Z,3.73
2018-09-05T04:08:49.036Z,3.43
2018-09-05T04:11:17.134Z,3.87
2018-09-05T04:13:45.247Z,3.80
2018-09-05T04:16:13.454Z,3.70
2018-09-05T04:18:41.563Z,4.30
2018-09-05T04:21:09.795Z,4.20
2018-09-05T04:23:43.190Z,5.20
2018-09-05T04:26:11.263Z,5.43
2018-09-05T04:28:39.338Z,5.40
2018-09-05T04:31:08.003Z,5.60
2018-09-05T04:33:36.144Z,5.30
2018-09-05T04:36:04.231Z,5.03
2018-09-05T04:38:32.538Z,5.37
2018-09-05T04:41:00.614Z,5.60
2018-09-05T04:43:28.903Z,5.50
2018-09-05T04:45:56.990Z,6.13
2018-09-05T04:48:25.067Z,5.13
2018-09-05T04:50:53.147Z,6.13
2018-09-05T04:53:21.669Z,4.60
2018-09-05T04:55:50.257Z,4.77
2018-09-05T04:58:18.335Z,4.00
2018-09-05T05:00:46.403Z,4.47
2018-09-05T05:03:14.663Z,3.73
2018-09-05T05:05:42.942Z,3.73
2018-09-05T05:08:10.936Z,3.90
2018-09-05T05:10:39.023Z,3.43
2018-09-05T05:13:07.094Z,3.37
2018-09-05T05:15:35.175Z,3.00
2018-09-05T05:18:03.247Z,3.43
2018-09-05T05:20:31.327Z,2.87
2018-09-05T05:22:59.415Z,3.00
2018-09-05T05:25:27.499Z,3.40
2018-09-05T05:27:55.584Z,3.10
2018-09-05T05:30:23.670Z,3.60
2018-09-05T05:32:51.797Z,3.60
2018-09-05T05:35:19.844Z,4.30
2018-09-05T05:37:47.915Z,3.57
2018-09-05T05:40:16.020Z,3.87
2018-09-05T05:42:44.062Z,3.17
2018-09-05T05:45:12.189Z,3.07
2018-09-05T05:47:40.279Z,3.43
2018-09-05T05:50:08.367Z,3.40
2018-09-05T05:52:36.435Z,3.40
2018-09-05T05:55:04.637Z,2.90
2018-09-05T05:57:32.915Z,2.70
2018-09-05T06:00:01.019Z,3.30
2018-09-05T06:02:29.275Z,3.20
2018-09-05T06:04:57.386Z,3.57
2018-09-05T06:07:25.499Z,3.23
2018-09-05T06:09:53.572Z,3.10
2018-09-05T06:12:21.670Z,3.17
2018-09-05T06:14:49.803Z,3.10
2018-09-05T06:17:17.886Z,3.23
2018-09-05T06:19:45.992Z,3.10
2018-09-05T06:22:14.075Z,2.90
2018-09-05T06:24:42.171Z,3.13
2018-09-05T06:27:10.243Z,3.20
2018-09-05T06:29:38.335Z,2.90
2018-09-05T06:32:06.411Z,3.13
2018-09-05T06:34:34.483Z,3.50
2018-09-05T06:37:02.624Z,2.90
2018-09-05T06:39:30.700Z,3.40
2018-09-05T06:41:58.871Z,3.27
2018-09-05T06:44:26.964Z,2.93
2018-09-05T06:46:55.360Z,3.17
2018-09-05T06:49:23.432Z,3.10
2018-09-05T06:51:51.525Z,3.03
2018-09-05T06:54:19.582Z,3.30
2018-09-05T06:56:47.667Z,3.00
2018-09-05T06:59:15.743Z,3.30
2018-09-05T07:01:43.837Z,3.33
2018-09-05T07:04:11.903Z,3.10
2018-09-05T07:06:39.996Z,2.80
2018-09-05T07:09:09.979Z,3.10
2018-09-05T07:11:38.223Z,3.10
2018-09-05T07:14:06.590Z,3.50
2018-09-05T07:16:34.772Z,3.10
2018-09-05T07:19:03.324Z,3.13
2018-09-05T07:21:31.525Z,2.83
2018-09-05T07:23:59.520Z,3.00
2018-09-05T07:26:27.605Z,3.37
2018-09-05T07:28:55.691Z,2.77
2018-09-05T07:31:23.778Z,3.60
2018-09-05T07:33:52.149Z,2.77
2018-09-05T07:36:20.231Z,2.97
2018-09-05T07:38:48.329Z,2.80
2018-09-05T07:41:16.398Z,3.30
2018-09-05T07:43:44.558Z,2.77
2018-09-05T07:46:12.591Z,2.93
2018-09-05T07:48:40.670Z,2.50
2018-09-05T07:51:08.828Z,2.80
2018-09-05T07:53:36.827Z,2.83
2018-09-05T07:56:05.067Z,2.97
2018-09-05T07:58:33.175Z,3.00
2018-09-05T08:01:01.316Z,2.70
2018-09-05T08:03:29.373Z,2.37
2018-09-05T08:05:57.448Z,3.20
2018-09-05T08:08:25.520Z,2.77
2018-09-05T08:10:53.604Z,2.47
2018-09-05T08:13:21.686Z,2.40
2018-09-05T08:15:49.817Z,3.10
2018-09-05T08:18:17.919Z,2.70
2018-09-05T08:20:45.981Z,2.73
2018-09-05T08:23:14.622Z,2.70
2018-09-05T08:25:42.733Z,2.80
2018-09-05T08:28:10.819Z,2.57
2018-09-05T08:30:38.987Z,2.70
2018-09-05T08:33:07.066Z,2.60
2018-09-05T08:35:35.381Z,2.50
2018-09-05T08:38:03.436Z,2.90
2018-09-05T08:40:31.424Z,2.30
2018-09-05T08:42:59.517Z,2.60
2018-09-05T08:45:28.094Z,2.43
2018-09-05T08:47:55.802Z,2.50
2018-09-05T08:50:24.162Z,2.60
2018-09-05T08:52:52.269Z,2.80
2018-09-05T08:55:20.404Z,2.33
2018-09-05T08:57:48.388Z,2.63
2018-09-05T09:00:16.487Z,2.37
2018-09-05T09:02:44.763Z,2.30
2018-09-05T09:05:12.834Z,2.50
2018-09-05T09:07:40.947Z,2.23
2018-09-05T09:10:39.870Z,2.50
2018-09-05T09:13:07.963Z,2.03
2018-09-05T09:15:37.033Z,2.40
2018-09-05T09:18:05.292Z,2.53
2018-09-05T09:20:34.638Z,2.47
2018-09-05T09:23:02.749Z,2.40
2018-09-05T09:25:30.851Z,2.07
2018-09-05T09:27:58.980Z,2.30
2018-09-05T09:30:27.240Z,2.50
2018-09-05T09:32:55.403Z,2.50
2018-09-05T09:35:24.575Z,2.20
2018-09-05T09:37:54.094Z,2.37
2018-09-05T09:40:23.018Z,2.00
2018-09-05T09:42:51.142Z,2.30
2018-09-05T09:45:21.660Z,2.23
2018-09-05T09:47:49.927Z,2.40
2018-09-05T09:50:19.002Z,2.47
2018-09-05T09:52:47.223Z,2.47
2018-09-05T09:55:15.668Z,2.33
2018-09-05T09:57:43.782Z,2.23
2018-09-05T10:00:12.244Z,2.40
2018-09-05T10:02:45.940Z,2.50
2018-09-05T10:06:25.519Z,1.97
2018-09-05T10:08:59.312Z,2.63
2018-09-05T10:11:32.816Z,2.17
2018-09-05T10:14:06.279Z,2.37
2018-09-05T10:17:42.340Z,2.23
2018-09-05T10:20:10.438Z,2.40
2018-09-05T10:22:38.588Z,2.10
2018-09-05T10:25:06.675Z,2.10
2018-09-05T10:27:34.848Z,2.00
2018-09-05T10:30:02.948Z,2.20
2018-09-05T10:32:31.036Z,2.10
2018-09-05T10:34:59.191Z,1.90
2018-09-05T10:37:27.279Z,2.27
2018-09-05T10:39:55.389Z,2.10
2018-09-05T10:42:23.486Z,1.90
2018-09-05T10:44:51.579Z,2.20
2018-09-05T10:47:19.725Z,2.40
2018-09-05T10:49:47.846Z,2.20
2018-09-05T10:52:15.933Z,2.10
2018-09-05T10:54:44.064Z,2.00
2018-09-05T10:57:12.143Z,2.10
2018-09-05T10:59:40.243Z,2.10
2018-09-05T11:02:08.404Z,1.80
2018-09-05T11:04:36.535Z,2.20
2018-09-05T11:07:04.899Z,2.03
2018-09-05T11:09:33.004Z,1.90
2018-09-05T11:12:01.124Z,2.23
2018-09-05T11:14:29.227Z,1.80
2018-09-05T11:16:57.433Z,1.90
2018-09-05T11:19:25.641Z,1.87
2018-09-05T11:21:53.851Z,2.30
2018-09-05T11:24:22.192Z,2.57
2018-09-05T11:26:50.694Z,2.47
2018-09-05T11:29:18.773Z,2.40
2018-09-05T11:31:46.893Z,2.03
2018-09-05T11:34:14.992Z,2.37
2018-09-05T11:36:43.099Z,2.40
2018-09-05T11:39:12.879Z,2.57
2018-09-05T11:41:42.323Z,2.30
2018-09-05T11:44:10.499Z,2.60
2018-09-05T11:46:39.240Z,2.07
2018-09-05T11:49:08.551Z,2.60
2018-09-05T11:51:36.943Z,2.13
2018-09-05T11:54:05.380Z,2.10
2018-09-05T11:56:33.475Z,2.50
2018-09-05T11:59:01.596Z,2.03
2018-09-05T12:01:29.709Z,2.03
2018-09-05T12:03:57.880Z,1.80
2018-09-05T12:06:25.979Z,1.77
2018-09-05T12:08:54.081Z,2.00
2018-09-05T12:11:22.167Z,1.97
2018-09-05T12:13:50.252Z,2.50
2018-09-05T12:16:18.805Z,2.10
2018-09-05T12:18:46.990Z,2.07
2018-09-05T12:21:15.629Z,2.40
2018-09-05T12:23:44.168Z,2.27
2018-09-05T12:26:13.415Z,2.23
2018-09-05T12:28:41.532Z,1.93
2018-09-05T12:31:09.659Z,1.90
2018-09-05T12:33:37.758Z,2.00
2018-09-05T12:36:05.899Z,2.23
2018-09-05T12:38:34.058Z,2.13
2018-09-05T12:41:02.191Z,2.10
2018-09-05T12:43:30.315Z,1.83
2018-09-05T12:45:58.415Z,1.97
2018-09-05T12:48:26.585Z,2.07
2018-09-05T12:50:55.236Z,2.23
2018-09-05T12:53:24.690Z,1.97
2018-09-05T12:55:52.822Z,2.50
2018-09-05T12:58:21.120Z,2.20
2018-09-05T13:00:51.556Z,2.17
2018-09-05T13:03:19.874Z,2.00
2018-09-05T13:05:48.228Z,2.00
2018-09-05T13:08:16.363Z,2.20
2018-09-05T13:10:44.523Z,2.00
2018-09-05T13:13:12.611Z,2.03
2018-09-05T13:15:40.704Z,2.13
2018-09-05T13:18:08.790Z,2.10
2018-09-05T13:20:37.045Z,2.20
2018-09-05T13:23:05.145Z,2.10
2018-09-05T13:25:33.264Z,1.87
2018-09-05T13:28:01.375Z,1.90
2018-09-05T13:30:29.566Z,2.10
2018-09-05T13:32:57.734Z,1.87
2018-09-05T13:35:25.897Z,1.93
2018-09-05T13:37:53.971Z,2.20
2018-09-05T13:40:22.086Z,2.00
2018-09-05T13:42:50.186Z,2.10
2018-09-05T13:45:18.554Z,2.10
2018-09-05T13:47:46.652Z,2.33
2018-09-05T13:50:14.986Z,1.93
2018-09-05T13:52:43.151Z,2.47
2018-09-05T13:55:11.308Z,2.03
2018-09-05T13:57:39.416Z,2.00
2018-09-05T14:00:09.535Z,2.23
2018-09-05T14:02:37.691Z,2.20
2018-09-05T14:05:05.835Z,2.13
2018-09-05T14:07:34.008Z,2.27
2018-09-05T14:10:02.142Z,2.27
2018-09-05T14:12:30.356Z,1.83
2018-09-05T14:14:58.522Z,2.20
2018-09-05T14:17:26.628Z,2.30
2018-09-05T14:22:29.558Z,2.00
2018-09-05T14:24:58.006Z,2.00
2018-09-05T14:27:26.270Z,2.20
2018-09-05T14:29:54.410Z,1.90
2018-09-05T14:32:22.736Z,1.90
2018-09-05T14:34:50.952Z,1.80
2018-09-05T14:37:19.061Z,1.60
2018-09-05T14:39:47.240Z,2.10
2018-09-05T14:42:15.738Z,2.00
2018-09-05T14:44:43.852Z,2.17
2018-09-05T14:47:11.940Z,1.80
2018-09-05T14:49:40.775Z,1.80
2018-09-05T14:52:08.907Z,1.53
2018-09-05T14:54:37.013Z,1.90
2018-09-05T14:57:05.263Z,1.40
2018-09-05T14:59:33.405Z,1.90
2018-09-05T15:02:01.917Z,1.90
2018-09-05T15:04:30.208Z,1.77
2018-09-05T15:06:58.314Z,2.10
2018-09-05T15:09:26.571Z,1.70
2018-09-05T15:11:54.708Z,1.80
2018-09-05T15:14:22.796Z,1.87
2018-09-05T15:16:50.919Z,1.80
2018-09-05T15:19:19.033Z,1.80
2018-09-05T15:21:47.332Z,1.97
2018-09-05T15:24:15.539Z,1.90
2018-09-05T15:26:43.749Z,1.80
2018-09-05T15:29:11.872Z,1.83
2018-09-05T15:31:40.100Z,1.60
2018-09-05T15:34:08.240Z,1.87
2018-09-05T15:36:36.407Z,1.70
2018-09-05T15:39:07.092Z,2.07
2018-09-05T15:41:35.293Z,1.63
2018-09-05T15:44:03.440Z,1.40
2018-09-05T15:46:32.179Z,1.50
2018-09-05T15:49:00.324Z,2.13
2018-09-05T15:51:28.664Z,1.80
2018-09-05T15:53:57.397Z,1.80
2018-09-05T15:56:25.532Z,1.80
2018-09-05T15:58:53.915Z,1.87
2018-09-05T16:01:22.144Z,1.73
2018-09-05T16:03:50.367Z,1.67
2018-09-05T16:06:18.459Z,1.63
2018-09-05T16:08:46.626Z,1.93
2018-09-05T16:11:15.390Z,1.50
2018-09-05T16:13:43.570Z,1.93
2018-09-05T16:16:11.803Z,1.40
2018-09-05T16:18:39.901Z,1.63
2018-09-05T16:21:07.996Z,1.70
2018-09-05T16:23:36.199Z,1.73
2018-09-05T16:26:04.320Z,1.80
2018-09-05T16:28:32.448Z,1.90
2018-09-05T16:31:00.556Z,1.87
2018-09-05T16:33:28.892Z,1.63
2018-09-05T16:35:57.684Z,2.67
2018-09-05T16:38:25.823Z,1.90
2018-09-05T16:40:54.084Z,2.00
2018-09-05T16:43:23.747Z,2.27
2018-09-05T16:45:52.014Z,2.40
2018-09-05T16:48:20.233Z,2.00
2018-09-05T16:50:48.296Z,2.47
2018-09-05T16:53:16.470Z,2.30
2018-09-05T16:55:44.603Z,1.80
2018-09-05T16:58:12.727Z,2.10
2018-09-05T17:00:40.910Z,2.10
2018-09-05T17:03:09.080Z,1.87
2018-09-05T17:05:37.220Z,2.20
2018-09-05T17:08:05.334Z,2.00
2018-09-05T17:10:33.624Z,2.20
2018-09-05T17:13:01.752Z,2.30
2018-09-05T17:15:31.839Z,2.20
2018-09-05T17:18:00.010Z,2.13
2018-09-05T17:20:30.906Z,2.60
2018-09-05T17:22:59.209Z,2.50
2018-09-05T17:25:27.336Z,2.80
2018-09-05T17:27:55.447Z,2.30
2018-09-05T17:30:23.632Z,2.70
2018-09-05T17:32:51.735Z,3.20
2018-09-05T17:35:20.202Z,3.40
2018-09-05T17:37:48.250Z,3.07
2018-09-05T17:40:16.380Z,2.67
2018-09-05T17:42:44.665Z,2.87
2018-09-05T17:45:12.759Z,2.93
2018-09-05T17:47:41.029Z,2.70
2018-09-05T17:50:09.115Z,3.20
2018-09-05T17:52:37.394Z,3.00
2018-09-05T17:55:05.827Z,3.17
2018-09-05T17:57:34.996Z,2.80
2018-09-05T18:00:03.191Z,2.50
2018-09-05T18:02:31.644Z,2.43
2018-09-05T18:04:59.883Z,2.90
2018-09-05T18:07:28.328Z,2.90
2018-09-05T18:09:56.527Z,2.83
2018-09-05T18:12:24.615Z,2.60
2018-09-05T18:14:52.761Z,2.60
2018-09-05T18:17:20.918Z,2.60
2018-09-05T18:19:49.326Z,2.43
2018-09-05T18:22:17.416Z,2.50
2018-09-05T18:24:45.596Z,2.80
2018-09-05T18:27:14.007Z,2.87
2018-09-05T18:29:42.227Z,2.73
2018-09-05T18:32:10.459Z,3.30
2018-09-05T18:34:38.567Z,3.13
2018-09-05T18:37:08.601Z,3.50
2018-09-05T18:39:36.690Z,3.40
2018-09-05T18:42:05.846Z,2.90
2018-09-05T18:44:34.391Z,2.80
2018-09-05T18:47:02.479Z,2.60
2018-09-05T18:49:32.767Z,3.07
2018-09-05T18:52:00.883Z,3.13
2018-09-05T18:54:29.156Z,2.80
2018-09-05T18:56:57.493Z,2.70
2018-09-05T18:59:25.595Z,2.63
2018-09-05T19:01:53.688Z,2.90
2018-09-05T19:04:21.789Z,2.83
2018-09-05T19:06:49.974Z,2.63
2018-09-05T19:09:18.416Z,2.90
2018-09-05T19:11:46.511Z,2.90
2018-09-05T19:14:15.469Z,3.27
2018-09-05T19:16:44.940Z,2.63
2018-09-05T19:19:13.077Z,2.63
2018-09-05T19:21:41.192Z,2.80
2018-09-05T19:24:09.286Z,2.87
2018-09-05T19:26:37.411Z,2.97
2018-09-05T19:29:05.613Z,3.10
2018-09-05T19:31:33.656Z,3.13
2018-09-05T19:34:01.861Z,2.90
2018-09-05T19:36:32.373Z,3.33
2018-09-05T19:39:00.582Z,2.60
2018-09-05T19:41:28.723Z,2.73
2018-09-05T19:43:57.008Z,2.77
2018-09-05T19:46:25.114Z,2.63
2018-09-05T19:48:53.208Z,2.23
2018-09-05T19:51:21.305Z,2.63
2018-09-05T19:53:49.392Z,2.60
2018-09-05T19:56:18.238Z,2.27
2018-09-05T19:58:47.567Z,2.70
2018-09-05T20:01:15.658Z,2.53
2018-09-05T20:03:43.844Z,2.83
2018-09-05T20:06:11.997Z,2.33
2018-09-05T20:08:40.163Z,2.47
2018-09-05T20:11:08.316Z,2.83
2018-09-05T20:13:36.431Z,2.90
2018-09-05T20:16:04.693Z,2.90
2018-09-05T20:18:33.001Z,2.40
2018-09-05T20:21:01.060Z,2.60
2018-09-05T20:23:29.437Z,2.30
2018-09-05T20:25:57.687Z,2.90
2018-09-05T20:28:25.816Z,2.80
2018-09-05T20:30:54.111Z,2.47
2018-09-05T20:33:22.381Z,2.60
2018-09-05T20:35:50.474Z,2.67
2018-09-05T20:38:18.715Z,2.40
2018-09-05T20:40:46.854Z,2.93
2018-09-05T20:43:14.983Z,2.40
2018-09-05T20:45:43.125Z,2.43
2018-09-05T20:48:11.232Z,2.50
2018-09-05T20:50:39.306Z,2.57
2018-09-05T20:53:08.053Z,2.43
2018-09-05T20:55:36.167Z,2.53
2018-09-05T20:58:04.284Z,2.57
2018-09-05T21:00:32.388Z,2.47
2018-09-05T21:03:00.478Z,2.57
2018-09-05T21:05:28.603Z,2.70
2018-09-05T21:07:56.727Z,2.67
2018-09-05T21:10:24.888Z,2.80
2018-09-05T21:12:53.002Z,2.70
2018-09-05T21:15:21.152Z,2.40
2018-09-05T21:17:49.252Z,2.50
2018-09-05T21:20:17.366Z,2.50
2018-09-05T21:22:45.663Z,2.90
2018-09-05T21:25:13.770Z,2.77
2018-09-05T21:27:41.900Z,2.27
2018-09-05T21:30:10.051Z,2.50
2018-09-05T21:32:38.179Z,2.40
2018-09-05T21:35:06.424Z,2.80
2018-09-05T21:37:34.848Z,2.70
2018-09-05T21:40:03.056Z,2.50
2018-09-05T21:42:31.107Z,2.40
2018-09-05T21:44:59.450Z,2.67
2018-09-05T21:47:28.399Z,2.43
2018-09-05T21:49:56.513Z,2.60
2018-09-05T21:52:24.652Z,2.87
2018-09-05T21:54:52.825Z,2.40
2018-09-05T21:57:20.913Z,3.03
2018-09-05T21:59:49.089Z,2.63
2018-09-05T22:02:17.174Z,2.70
2018-09-05T22:04:45.317Z,2.70
2018-09-05T22:07:13.424Z,2.40
2018-09-05T22:09:41.526Z,2.90
2018-09-05T22:12:09.661Z,2.60
2018-09-05T22:14:37.795Z,2.70
2018-09-05T22:17:06.083Z,2.40
2018-09-05T22:19:34.235Z,2.80
2018-09-05T22:22:02.343Z,2.20
2018-09-05T22:24:30.459Z,3.10
2018-09-05T22:26:58.573Z,2.73
2018-09-05T22:29:26.660Z,2.73
2018-09-05T22:31:54.752Z,2.67
2018-09-05T22:34:22.847Z,2.50
2018-09-05T22:36:50.958Z,2.90
2018-09-05T22:39:19.063Z,2.90
2018-09-05T22:41:47.163Z,2.60
2018-09-05T22:44:26.552Z,2.70
2018-09-05T22:47:05.967Z,2.40
2018-09-05T22:49:54.304Z,2.80
2018-09-05T22:54:47.859Z,2.73
2018-09-05T22:57:42.732Z,2.57
2018-09-05T23:00:25.781Z,2.73
2018-09-05T23:04:07.307Z,2.67
2018-09-05T23:06:49.817Z,2.73
2018-09-05T23:09:27.937Z,2.70
2018-09-05T23:12:07.489Z,2.90
2018-09-05T23:14:47.070Z,2.70
2018-09-05T23:17:31.449Z,2.70
2018-09-05T23:22:17.380Z,2.73
2018-09-05T23:24:45.476Z,2.60
2018-09-05T23:27:13.593Z,2.67
2018-09-05T23:29:41.692Z,2.40
2018-09-05T23:32:10.137Z,2.67
2018-09-05T23:34:38.251Z,2.70
2018-09-05T23:37:06.388Z,2.53
2018-09-05T23:39:34.495Z,2.63
2018-09-05T23:42:02.595Z,2.20
2018-09-05T23:44:30.697Z,2.70
2018-09-05T23:46:58.781Z,2.50
2018-09-05T23:49:26.893Z,2.70
2018-09-05T23:51:55.028Z,2.50
2018-09-05T23:54:23.119Z,3.10
2018-09-05T23:56:51.235Z,2.70
2018-09-05T23:59:19.321Z,2.77
